^^
Station Historical Data
Daily Summary for May 4, 2017 Units:  English    Metric   Both
« Previous Day
Next Day »
Daily Weekly Monthly Yearly Custom
  High: Low: Average:
Temperature: 61.8 °F 40.7 °F 52 °F
Dew Point: 41.9 °F 27.6 °F 35.9 °F
Humidity: 82% 29% 57%
Wind Speed: 6.0mph 0.0mph 1.1mph
Wind Gust: 14.0mph - -
Wind- - SSW
Pressure: 30.31 in 30.14 in -
Precipitation: 0.00 in    
Historical Graphs
 
 
Tabular Data for May 4, 2017
Time Temperature Dew Point Pressure Wind Wind Speed Wind Gust Humidity Rainfall Rate (Hourly) Conditions
00:00 50.6 °F 34.6 °F 30.21 in NNE 2.0 mph 6.0 mph 54% 0.00 in CLR
00:15 50.5 °F 34.5 °F 30.22 in NNE 2.0 mph 6.0 mph 54% 0.00 in CLR
00:30 50.1 °F 35.0 °F 30.22 in Calm   5.0 mph 56% 0.00 in CLR
00:45 49.3 °F 34.7 °F 30.22 in Calm   2.0 mph 57% 0.00 in CLR
01:00 48.3 °F 33.8 °F 30.21 in Calm   1.0 mph 57% 0.00 in CLR
02:15 45.9 °F 34.0 °F 30.23 in Calm   1.0 mph 63% 0.00 in CLR
02:30 44.7 °F 34.4 °F 30.23 in Calm     67% 0.00 in CLR
02:45 46.0 °F 34.9 °F 30.22 in Calm   2.0 mph 65% 0.00 in CLR
03:00 43.7 °F 35.3 °F 30.23 in Calm   1.0 mph 72% 0.00 in CLR
03:15 42.6 °F 35.2 °F 30.24 in Calm     75% 0.00 in CLR
03:30 41.5 °F 34.8 °F 30.24 in Calm     77% 0.00 in CLR
03:45 41.2 °F 35.5 °F 30.24 in Calm     80% 0.00 in CLR
04:00 42.2 °F 35.8 °F 30.24 in Calm   1.0 mph 78% 0.00 in CLR
04:15 41.7 °F 35.7 °F 30.25 in Calm     79% 0.00 in CLR
04:30 40.7 °F 35.6 °F 30.25 in Calm     82% 0.00 in CLR
04:45 40.7 °F 35.3 °F 30.25 in Calm     81% 0.00 in CLR
05:00 41.4 °F 35.1 °F 30.25 in Calm   1.0 mph 78% 0.00 in CLR
05:15 41.9 °F 35.2 °F 30.25 in Calm   2.0 mph 77% 0.00 in CLR
05:30 42.3 °F 34.9 °F 30.25 in Calm   1.0 mph 75% 0.00 in CLR
05:45 42.0 °F 35.0 °F 30.25 in Calm   1.0 mph 76% 0.00 in CLR
06:00 41.6 °F 35.2 °F 30.25 in Calm   1.0 mph 78% 0.00 in CLR
06:15 41.6 °F 35.6 °F 30.26 in Calm   1.0 mph 79% 0.00 in CLR
06:30 41.3 °F 35.6 °F 30.26 in Calm   1.0 mph 80% 0.00 in CLR
06:45 41.3 °F 35.9 °F 30.26 in Calm     81% 0.00 in CLR
07:00 41.3 °F 35.3 °F 30.27 in Calm     79% 0.00 in CLR
07:15 42.0 °F 35.7 °F 30.28 in Calm     78% 0.00 in CLR
07:30 43.5 °F 35.8 °F 30.28 in Calm   1.0 mph 74% 0.00 in CLR
07:45 45.6 °F 36.0 °F 30.28 in Calm   2.0 mph 69% 0.00 in CLR
08:00 47.7 °F 36.1 °F 30.29 in Calm   4.0 mph 64% 0.00 in CLR
08:15 49.2 °F 36.3 °F 30.30 in Calm   3.0 mph 61% 0.00 in CLR
08:30 51.2 °F 36.9 °F 30.30 in Calm   1.0 mph 58% 0.00 in CLR
08:45 51.9 °F 39.3 °F 30.31 in Calm   3.0 mph 62% 0.00 in CLR
09:00 55.0 °F 38.2 °F 30.31 in Calm   1.0 mph 53% 0.00 in CLR
09:15 55.5 °F 35.0 °F 30.31 in Calm   5.0 mph 46% 0.00 in CLR
09:30 57.3 °F 34.4 °F 30.31 in SSE 1.0 mph 5.0 mph 42% 0.00 in CLR
09:45 57.1 °F 33.0 °F 30.31 in Calm   7.0 mph 40% 0.00 in CLR
10:00 57.7 °F 32.2 °F 30.30 in West 1.0 mph 7.0 mph 38% 0.00 in CLR
10:15 58.5 °F 33.6 °F 30.29 in SSW 1.0 mph 9.0 mph 39% 0.00 in CLR
10:30 58.0 °F 31.8 °F 30.28 in North 3.0 mph 10.0 mph 37% 0.00 in CLR
10:45 58.0 °F 31.2 °F 30.29 in SE 3.0 mph 10.0 mph 36% 0.00 in CLR
11:00 58.6 °F 31.7 °F 30.29 in SW 1.0 mph 10.0 mph 36% 0.00 in CLR
11:15 58.7 °F 30.4 °F 30.30 in WSW 3.0 mph 9.0 mph 34% 0.00 in CLR
11:30 58.8 °F 29.8 °F 30.30 in NNW 2.0 mph 7.0 mph 33% 0.00 in CLR
11:45 59.4 °F 29.5 °F 30.29 in NE 2.0 mph 9.0 mph 32% 0.00 in CLR
12:00 60.0 °F 27.6 °F 30.28 in SW 2.0 mph 8.0 mph 29% 0.00 in CLR
12:15 60.3 °F 30.3 °F 30.27 in NW 1.0 mph 7.0 mph 32% 0.00 in CLR
12:30 60.8 °F 34.4 °F 30.26 in South 1.0 mph 12.0 mph 37% 0.00 in CLR
12:45 60.8 °F 33.0 °F 30.26 in South 5.0 mph 12.0 mph 35% 0.00 in CLR
13:00 60.5 °F 34.1 °F 30.26 in WSW 6.0 mph 9.0 mph 37% 0.00 in CLR
13:15 61.5 °F 35.0 °F 30.25 in SSW 1.0 mph 10.0 mph 37% 0.00 in CLR
13:30 61.8 °F 34.5 °F 30.25 in NE 2.0 mph 12.0 mph 36% 0.00 in CLR
13:45 61.6 °F 35.7 °F 30.24 in WSW 2.0 mph 9.0 mph 38% 0.00 in CLR
14:00 61.4 °F 35.6 °F 30.24 in SSE 3.0 mph 12.0 mph 38% 0.00 in CLR
14:15 61.5 °F 35.6 °F 30.23 in SSW 3.0 mph 12.0 mph 38% 0.00 in CLR
14:30 61.7 °F 35.8 °F 30.23 in WSW 3.0 mph 12.0 mph 38% 0.00 in CLR
14:45 61.6 °F 36.4 °F 30.22 in WNW 1.0 mph 12.0 mph 39% 0.00 in CLR
15:00 61.0 °F 35.9 °F 30.22 in SSW 1.0 mph 13.0 mph 39% 0.00 in CLR
15:15 60.7 °F 36.3 °F 30.22 in SSW 3.0 mph 10.0 mph 40% 0.00 in CLR
15:30 60.3 °F 36.5 °F 30.22 in SSW 3.0 mph 8.0 mph 41% 0.00 in CLR
15:45 59.6 °F 35.9 °F 30.22 in WNW 3.0 mph 12.0 mph 41% 0.00 in CLR
16:00 59.1 °F 35.4 °F 30.21 in NNE 3.0 mph 12.0 mph 41% 0.00 in CLR
16:15 58.6 °F 35.6 °F 30.21 in South 5.0 mph 12.0 mph 42% 0.00 in CLR
16:30 59.0 °F 35.3 °F 30.21 in SW 3.0 mph 13.0 mph 41% 0.00 in CLR
16:45 58.8 °F 35.7 °F 30.21 in SW 1.0 mph 12.0 mph 42% 0.00 in CLR
17:00 58.1 °F 35.1 °F 30.21 in SSW 2.0 mph 14.0 mph 42% 0.00 in CLR
17:15 57.6 °F 35.2 °F 30.21 in SSW 3.0 mph 12.0 mph 43% 0.00 in CLR
17:30 56.8 °F 34.5 °F 30.20 in West 2.0 mph 9.0 mph 43% 0.00 in CLR
17:45 56.2 °F 35.1 °F 30.21 in WSW 1.0 mph 9.0 mph 45% 0.00 in CLR
18:00 55.1 °F 34.7 °F 30.21 in SSW 3.0 mph 12.0 mph 46% 0.00 in CLR
18:15 54.4 °F 35.6 °F 30.20 in South 1.0 mph 12.0 mph 49% 0.00 in CLR
18:30 53.8 °F 37.1 °F 30.21 in SSW 3.0 mph 10.0 mph 53% 0.00 in CLR
18:45 53.3 °F 38.4 °F 30.21 in SSW 3.0 mph 9.0 mph 57% 0.00 in CLR
19:00 52.9 °F 39.0 °F 30.21 in South 1.0 mph 7.0 mph 59% 0.00 in CLR
19:15 52.5 °F 39.0 °F 30.20 in SSW 1.0 mph 6.0 mph 60% 0.00 in CLR
19:30 52.2 °F 39.2 °F 30.20 in Calm   5.0 mph 61% 0.00 in CLR
19:45 51.8 °F 40.0 °F 30.19 in WSW 1.0 mph 5.0 mph 64% 0.00 in CLR
20:15 51.3 °F 40.7 °F 30.19 in South 2.0 mph 7.0 mph 67% 0.00 in CLR
20:30 51.1 °F 40.5 °F 30.19 in Calm   3.0 mph 67% 0.00 in CLR
20:45 51.0 °F 40.4 °F 30.19 in SW 1.0 mph 5.0 mph 67% 0.00 in CLR
21:00 50.8 °F 40.6 °F 30.18 in Calm   5.0 mph 68% 0.00 in CLR
21:15 50.6 °F 40.5 °F 30.18 in Calm   4.0 mph 68% 0.00 in CLR
21:30 50.5 °F 40.7 °F 30.18 in Calm   7.0 mph 69% 0.00 in CLR
21:45 50.3 °F 40.9 °F 30.18 in South 1.0 mph 4.0 mph 70% 0.00 in CLR
22:15 50.0 °F 41.0 °F 30.17 in Calm   5.0 mph 71% 0.00 in CLR
22:30 49.7 °F 41.0 °F 30.17 in Calm   3.0 mph 72% 0.00 in CLR
22:45 49.4 °F 41.1 °F 30.16 in Calm   3.0 mph 73% 0.00 in CLR
23:00 49.1 °F 41.5 °F 30.15 in Calm   4.0 mph 75% 0.00 in CLR
23:15 49.0 °F 41.4 °F 30.15 in East 1.0 mph 3.0 mph 75% 0.00 in CLR
23:30 49.0 °F 41.8 °F 30.14 in Calm   4.0 mph 76% 0.00 in CLR
23:45 49.1 °F 41.9 °F 30.14 in North 1.0 mph 4.0 mph 76% 0.00 in CLR
TarryTown NY Weather
Compliments of Weather Underground - 1.5 mb